Terminal Aerodrome Forecast
Issued by NWS

Home | Current Version | Previous Version | Text Only | Print | Product List | Glossary On
Versions: 1 2 3 4 5 6 7 8 9 10 11 12 13 14 15 16 17 18 19 20 21 22
847
FTUS45 KTFX 252342
TAFBZN
TAF
KBZN 252342Z 2600/2624 26011KT P6SM VCSH SCT040 BKN070
     FM260200 18006KT P6SM SCT040 BKN070 WS015/26025KT
     FM261200 VRB05KT P6SM VCSH SCT025 OVC040 WS020/25025KT PROB30
      2618/2624 4SM -SHSN BR BKN025=

USA.gov is the U.S. government's official web portal to all federal, state and local government web resources and services.